Time;durP1;ratioP1;P1;durP2;ratioP2;P2;SDS_P1;SDS_P2;PMS_P1;PMS_P2;Temp;Humidity;BMP_temperature;BMP_pressure;BME280_temperature;BME280_humidity;BME280_pressure;Samples;Min_cycle;Max_cycle;Signal;HPM_P1;HPM_P2
2022/11/06 00:01:53;;;;;;;32.93;19.95;;;;;;;7.63;100.00;100572.78;1724609;78;21453;-67
2022/11/06 00:04:19;;;;;;;28.12;19.40;;;;;;;7.64;100.00;100567.98;1745989;79;21545;-67
2022/11/06 00:06:49;;;;;;;27.17;18.90;;;;;;;7.64;100.00;100558.81;1730149;80;21426;-66
2022/11/06 00:09:19;;;;;;;28.57;19.87;;;;;;;7.64;100.00;100575.38;1758294;79;21804;-65
2022/11/06 00:11:48;;;;;;;33.67;19.17;;;;;;;7.63;100.00;100567.54;1763856;79;21429;-66
2022/11/06 00:14:15;;;;;;;25.77;19.45;;;;;;;7.62;100.00;100564.07;1765831;79;21028;-66
2022/11/06 00:16:43;;;;;;;26.77;18.57;;;;;;;7.62;100.00;100565.38;1771803;77;27120;-66
2022/11/06 00:19:09;;;;;;;28.20;19.65;;;;;;;7.63;100.00;100566.23;1769804;78;21523;-66
2022/11/06 00:21:37;;;;;;;26.52;18.92;;;;;;;7.64;100.00;100563.59;1757527;78;21842;-66
2022/11/06 00:24:05;;;;;;;30.55;19.55;;;;;;;7.68;100.00;100559.18;1769251;78;21039;-66
2022/11/06 00:26:33;;;;;;;27.30;19.87;;;;;;;7.70;100.00;100565.25;1766689;78;21598;-66
2022/11/06 00:29:00;;;;;;;27.48;19.35;;;;;;;7.72;100.00;100566.09;1719814;80;21047;-67
2022/11/06 00:31:30;;;;;;;27.73;19.05;;;;;;;7.71;100.00;100557.83;1702540;81;21513;-67
2022/11/06 00:33:58;;;;;;;29.12;19.42;;;;;;;7.70;100.00;100557.39;1680699;81;21767;-66
2022/11/06 00:36:29;;;;;;;29.75;20.43;;;;;;;7.71;100.00;100557.38;1770638;79;21565;-67
2022/11/06 00:38:56;;;;;;;25.25;18.90;;;;;;;7.70;100.00;100553.47;1741556;80;21458;-67
2022/11/06 00:41:25;;;;;;;;;;;;;;;7.70;100.00;100546.92;1778334;77;20952;-67
2022/11/06 00:43:55;;;;;;;25.30;19.32;;;;;;;7.63;100.00;100541.37;1759528;78;20451;-66
2022/11/06 00:46:23;;;;;;;27.07;18.00;;;;;;;7.64;100.00;100545.73;1739898;80;21846;-67
2022/11/06 00:48:49;;;;;;;24.27;17.62;;;;;;;7.66;100.00;100540.02;1747929;79;21654;-67
2022/11/06 00:51:24;;;;;;;25.20;19.27;;;;;;;7.68;100.00;100544.33;1744938;80;21089;-66
2022/11/06 00:53:56;;;;;;;26.35;19.02;;;;;;;7.67;100.00;100545.69;1755267;79;21529;-66
2022/11/06 00:56:24;;;;;;;25.00;18.17;;;;;;;7.66;100.00;100544.80;1761135;78;21557;-67
2022/11/06 00:58:51;;;;;;;28.15;18.87;;;;;;;7.67;100.00;100545.23;1749077;80;21796;-66
2022/11/06 01:01:24;;;;;;;26.90;19.70;;;;;;;7.65;100.00;100545.70;1748983;78;21438;-66
2022/11/06 01:03:56;;;;;;;25.02;18.15;;;;;;;7.65;100.00;100545.70;1749754;79;21616;-66
2022/11/06 01:06:27;;;;;;;27.35;18.85;;;;;;;7.66;100.00;100546.56;1755641;79;21518;-66
2022/11/06 01:08:53;;;;;;;25.43;19.73;;;;;;;7.66;100.00;100547.88;1761335;78;21062;-67
2022/11/06 01:11:23;;;;;;;26.68;18.57;;;;;;;7.65;100.00;100547.02;1769700;79;21441;-66
2022/11/06 01:13:54;;;;;;;29.48;19.45;;;;;;;7.66;100.00;100546.56;1763259;79;21595;-66
2022/11/06 01:16:21;;;;;;;24.10;18.52;;;;;;;7.66;100.00;100548.73;1713094;80;21458;-66
2022/11/06 01:18:48;;;;;;;25.30;18.73;;;;;;;7.68;100.00;100548.25;1708570;81;21592;-66
2022/11/06 01:21:18;;;;;;;27.35;19.60;;;;;;;7.68;100.00;100545.64;1713955;81;20992;-65
2022/11/06 01:23:45;;;;;;;24.18;18.65;;;;;;;7.69;100.00;100544.77;1754929;79;21989;-68
2022/11/06 01:26:14;;;;;;;24.27;18.52;;;;;;;7.70;100.00;100550.40;1737749;79;21452;-67
2022/11/06 01:28:40;;;;;;;29.42;18.62;;;;;;;7.71;100.00;100548.67;1712269;81;21541;-67
2022/11/06 01:31:12;;;;;;;29.37;19.25;;;;;;;7.70;100.00;100546.47;1708551;80;21681;-67
2022/11/06 01:33:39;;;;;;;25.80;19.12;;;;;;;7.68;100.00;100548.25;1707431;81;21572;-66
2022/11/06 01:36:08;;;;;;;28.10;18.85;;;;;;;7.68;100.00;100546.09;1706880;81;21875;-67
2022/11/06 01:38:35;;;;;;;27.22;18.50;;;;;;;7.70;100.00;100550.40;1697301;81;21061;-67
2022/11/06 01:41:01;;;;;;;24.90;18.30;;;;;;;7.70;100.00;100550.40;1731063;80;21494;-67
2022/11/06 01:43:53;;;;;;;26.80;18.75;;;;;;;7.71;100.00;100539.05;1700710;81;21748;-67
2022/11/06 01:46:21;;;;;;;27.48;18.57;;;;;;;7.71;100.00;100549.98;1714385;80;21113;-67
2022/11/06 01:49:00;;;;;;;22.98;17.48;;;;;;;7.68;100.00;100543.47;1718976;79;21892;-68
2022/11/06 01:51:27;;;;;;;;;;;;;;;7.71;100.00;100541.67;1734403;80;21414;-67
2022/11/06 01:53:54;;;;;;;23.42;17.32;;;;;;;7.67;100.00;100542.62;1705575;80;20155;-67
2022/11/06 01:56:20;;;;;;;28.62;17.92;;;;;;;7.70;100.00;100541.23;1719820;81;21533;-67
2022/11/06 01:58:51;;;;;;;28.35;18.73;;;;;;;7.69;100.00;100547.38;1756749;79;21077;-67
2022/11/06 02:01:17;;;;;;;25.57;17.75;;;;;;;7.68;100.00;100548.70;1756363;79;22551;-67
2022/11/06 02:03:57;;;;;;;26.02;18.82;;;;;;;7.71;100.00;100551.29;1750802;78;21690;-67
2022/11/06 02:06:24;;;;;;;23.27;17.98;;;;;;;7.72;100.00;100542.11;1695688;82;21421;-66
2022/11/06 02:08:50;;;;;;;25.37;18.02;;;;;;;7.70;100.00;100538.63;1760829;78;21695;-66
2022/11/06 02:11:17;;;;;;;23.67;19.00;;;;;;;7.70;100.00;100538.63;1757610;77;21602;-66
2022/11/06 02:14:14;;;;;;;22.55;18.02;;;;;;;7.68;100.00;100546.09;1754238;78;21820;-66
2022/11/06 02:16:56;;;;;;;25.85;17.57;;;;;;;7.70;100.00;100548.23;1759280;78;21614;-67
2022/11/06 02:19:52;;;;;;;21.82;17.05;;;;;;;7.71;100.00;100542.98;1772722;79;21660;-67
2022/11/06 02:22:53;;;;;;;24.60;18.35;;;;;;;7.71;100.00;100542.98;1753522;79;21056;-66
2022/11/06 02:25:57;;;;;;;23.83;17.45;;;;;;;7.69;100.00;100544.77;1774563;78;21530;-66
2022/11/06 02:28:31;;;;;;;22.42;17.12;;;;;;;7.69;100.00;100553.92;1764432;79;21833;-66
2022/11/06 02:30:57;;;;;;;28.90;18.92;;;;;;;7.68;100.00;100546.09;1766041;78;21417;-66
2022/11/06 02:33:29;;;;;;;27.48;18.20;;;;;;;7.69;100.00;100548.69;1778405;78;21761;-68
2022/11/06 02:36:00;;;;;;;21.95;17.60;;;;;;;7.68;100.00;100544.33;1775798;77;21502;-67
2022/11/06 02:38:40;;;;;;;23.57;18.07;;;;;;;7.66;100.00;100546.11;1768701;78;21577;-69
2022/11/06 02:41:11;;;;;;;23.95;18.32;;;;;;;7.64;100.00;100542.66;1747533;79;21951;-67
2022/11/06 02:43:46;;;;;;;27.48;18.82;;;;;;;7.65;100.00;100542.20;1772691;78;21071;-66
2022/11/06 02:46:28;;;;;;;26.05;18.60;;;;;;;7.68;100.00;100547.40;1774346;77;21466;-67
2022/11/06 02:49:00;;;;;;;24.02;18.70;;;;;;;7.69;100.00;100543.45;1736120;80;21475;-67
2022/11/06 02:51:29;;;;;;;27.30;18.62;;;;;;;7.68;100.00;100543.47;1752070;79;21521;-66
2022/11/06 02:54:01;;;;;;;22.32;17.73;;;;;;;7.70;100.00;100546.47;1743799;78;21056;-66
2022/11/06 02:56:33;;;;;;;26.55;18.05;;;;;;;7.71;100.00;100545.59;1759462;79;21731;-66
2022/11/06 02:59:20;;;;;;;28.23;19.30;;;;;;;7.73;100.00;100544.27;1767267;78;21505;-66
2022/11/06 03:01:52;;;;;;;26.30;17.13;;;;;;;7.74;100.00;100548.17;1768177;77;21520;-66
2022/11/06 03:04:24;;;;;;;27.87;18.35;;;;;;;7.73;100.00;100554.29;1770174;78;21133;-66
2022/11/06 03:07:13;;;;;;;26.15;19.17;;;;;;;7.76;100.00;100544.20;1771545;78;21776;-66
2022/11/06 03:09:39;;;;;;;28.12;18.57;;;;;;;7.75;100.00;100543.80;1774440;78;21607;-67
2022/11/06 03:12:29;;;;;;;24.90;18.92;;;;;;;7.74;100.00;100539.02;1767190;78;24919;-67
2022/11/06 03:15:23;;;;;;;24.43;18.23;;;;;;;7.71;100.00;100540.36;1765210;77;21049;-66
2022/11/06 03:18:07;;;;;;;26.82;19.35;;;;;;;7.72;100.00;100545.14;1756235;78;21294;-66
2022/11/06 03:20:56;;;;;;;26.30;19.65;;;;;;;7.72;100.00;100542.53;1740661;79;21932;-66
2022/11/06 03:23:34;;;;;;;28.90;19.98;;;;;;;7.73;100.00;100549.05;1764646;77;21560;-65
2022/11/06 03:26:16;;;;;;;;;;;;;;;7.74;100.00;100541.63;1775080;78;21580;-66
2022/11/06 03:28:57;;;;;;;32.23;20.35;;;;;;;7.66;100.00;100536.95;1747710;79;20464;-66
2022/11/06 03:31:34;;;;;;;31.73;19.95;;;;;;;7.67;100.00;100540.00;1763673;79;21292;-66
2022/11/06 03:34:08;;;;;;;30.08;19.67;;;;;;;7.68;100.00;100535.63;1760746;77;21822;-66
2022/11/06 03:36:41;;;;;;;33.92;21.80;;;;;;;7.69;100.00;100543.91;1769030;78;21494;-66
2022/11/06 03:39:15;;;;;;;30.17;21.45;;;;;;;7.69;100.00;100539.53;1763863;79;21469;-67
2022/11/06 03:42:04;;;;;;;31.70;22.00;;;;;;;7.68;100.00;100535.63;1769016;79;21574;-66
2022/11/06 03:44:33;;;;;;;33.70;22.30;;;;;;;7.68;100.00;100535.63;1772227;77;21550;-66
2022/11/06 03:47:08;;;;;;;29.23;20.85;;;;;;;7.67;100.00;100542.62;1764779;78;21739;-66
2022/11/06 03:49:42;;;;;;;31.82;20.80;;;;;;;7.68;100.00;100519.46;1785251;78;21056;-68
2022/11/06 03:52:17;;;;;;;29.92;21.20;;;;;;;7.71;100.00;100520.73;1767116;79;21504;-67
2022/11/06 03:54:54;;;;;;;35.38;22.67;;;;;;;7.72;100.00;100521.16;1750204;78;21155;-67
2022/11/06 03:57:35;;;;;;;32.17;21.90;;;;;;;7.70;100.00;100527.30;1784703;79;21619;-67
2022/11/06 04:00:03;;;;;;;30.27;21.17;;;;;;;7.67;100.00;100519.06;1770600;78;21876;-66
2022/11/06 04:02:32;;;;;;;33.38;21.75;;;;;;;7.67;100.00;100518.20;1749337;78;21557;-67
2022/11/06 04:05:01;;;;;;;35.23;21.73;;;;;;;7.67;100.00;100519.52;1760337;78;21564;-67
2022/11/06 04:07:36;;;;;;;33.02;21.90;;;;;;;7.68;100.00;100519.46;1774112;79;21477;-66
2022/11/06 04:15:50;;;;;;;29.10;20.92;;;;;;;7.67;100.00;100527.37;1753911;79;21533;-66
2022/11/06 04:18:18;;;;;;;29.00;20.05;;;;;;;7.66;100.00;100527.79;1744274;79;21655;-66
2022/11/06 04:27:12;;;;;;;31.48;20.27;;;;;;;7.64;100.00;100532.64;1740706;78;21943;-66
2022/11/06 04:30:08;;;;;;;32.23;20.85;;;;;;;7.63;100.00;100530.48;1737312;79;21415;-66
2022/11/06 04:33:05;;;;;;;34.98;22.00;;;;;;;7.62;100.00;100524.81;1756338;80;21634;-66
2022/11/06 04:36:23;;;;;;;30.15;20.20;;;;;;;7.58;100.00;100530.53;1761467;79;21647;-67
2022/11/06 04:39:20;;;;;;;26.73;18.42;;;;;;;7.58;100.00;100529.68;1749671;78;21532;-68
2022/11/06 04:42:09;;;;;;;29.37;18.40;;;;;;;7.56;100.00;100530.16;1764635;77;22017;-67
2022/11/06 04:44:44;;;;;;;30.48;18.55;;;;;;;7.56;100.00;100531.01;1773334;78;22168;-67
2022/11/06 04:47:14;;;;;;;27.58;17.27;;;;;;;7.59;100.00;100527.46;1773989;78;21710;-67
2022/11/06 04:49:42;;;;;;;26.17;17.82;;;;;;;7.61;100.00;100529.64;1769404;78;21712;-67
2022/11/06 04:52:13;;;;;;;27.05;17.75;;;;;;;7.62;100.00;100537.04;1769065;79;21589;-66
2022/11/06 04:54:41;;;;;;;22.87;16.87;;;;;;;7.60;100.00;100539.22;1769710;78;21335;-66
2022/11/06 04:57:07;;;;;;;22.65;16.97;;;;;;;7.59;100.00;100541.44;1769205;78;21560;-66
2022/11/06 04:59:35;;;;;;;26.33;17.40;;;;;;;7.60;100.00;100541.84;1765593;78;21496;-66
2022/11/06 05:02:03;;;;;;;23.65;16.37;;;;;;;7.62;100.00;100541.82;1736832;79;21158;-66
2022/11/06 05:04:30;;;;;;;25.62;16.97;;;;;;;7.65;100.00;100543.09;1779150;77;21607;-66
2022/11/06 05:06:56;;;;;;;24.32;16.62;;;;;;;7.64;100.00;100545.27;1779302;78;21806;-67
2022/11/06 05:09:24;;;;;;;24.00;17.50;;;;;;;7.63;100.00;100547.91;1758543;78;21434;-67
2022/11/06 05:11:52;;;;;;;23.57;16.32;;;;;;;7.66;100.00;100553.96;1764039;77;21536;-67
2022/11/06 05:14:18;;;;;;;24.80;16.55;;;;;;;7.66;100.00;100552.66;1763554;78;21598;-67
2022/11/06 05:16:45;;;;;;;23.85;16.48;;;;;;;7.69;100.00;100559.61;1759109;79;21470;-68
2022/11/06 05:19:13;;;;;;;23.07;15.63;;;;;;;7.69;100.00;100562.23;1758653;79;21806;-67
2022/11/06 05:24:20;;;;;;;25.10;15.70;;;;;;;7.70;100.00;100563.48;1704268;80;21613;-67
2022/11/06 05:26:47;;;;;;;23.22;14.78;;;;;;;7.71;100.00;100563.92;1757631;78;21545;-67
2022/11/06 05:29:14;;;;;;;26.02;16.27;;;;;;;7.71;100.00;100568.30;1720331;80;21595;-67
2022/11/06 05:31:41;;;;;;;23.47;15.83;;;;;;;7.69;100.00;100565.70;1766189;79;21915;-66
2022/11/06 05:34:08;;;;;;;23.83;15.28;;;;;;;7.71;100.00;100567.00;1745804;79;21670;-66
2022/11/06 05:36:35;;;;;;;24.13;16.07;;;;;;;7.72;100.00;100567.39;1756832;79;21519;-67
2022/11/06 05:39:01;;;;;;;24.02;16.17;;;;;;;7.71;100.00;100569.61;1737963;80;21418;-63
2022/11/06 05:41:28;;;;;;;27.77;16.20;;;;;;;7.73;100.00;100572.61;1750168;79;21541;-63
2022/11/06 05:43:56;;;;;;;;;;;;;;;7.72;100.00;100574.83;1753478;79;21817;-65
2022/11/06 05:46:23;;;;;;;22.45;15.40;;;;;;;7.69;100.00;100573.56;1718253;81;20483;-65
2022/11/06 05:48:49;;;;;;;22.58;15.32;;;;;;;7.73;100.00;100579.16;1737857;80;21535;-65
2022/11/06 05:51:18;;;;;;;24.57;16.07;;;;;;;7.78;100.00;100572.55;1727738;80;28453;-61
2022/11/06 05:53:45;;;;;;;23.42;15.00;;;;;;;7.79;100.00;100579.05;1735583;80;21668;-65
2022/11/06 05:56:12;;;;;;;27.53;16.70;;;;;;;7.76;100.00;100588.28;1718689;81;21819;-66
2022/11/06 05:58:38;;;;;;;26.05;16.85;;;;;;;7.74;100.00;100588.75;1716820;80;21547;-65
2022/11/06 06:01:05;;;;;;;23.70;15.58;;;;;;;7.77;100.00;100591.76;1718824;80;21554;-66
2022/11/06 06:03:31;;;;;;;23.67;15.30;;;;;;;7.77;100.00;100590.45;1700196;81;21522;-66
2022/11/06 06:05:58;;;;;;;21.97;15.23;;;;;;;7.77;100.00;100592.61;1689326;81;21549;-67
2022/11/06 06:08:24;;;;;;;24.18;15.32;;;;;;;7.76;100.00;100589.59;1695171;82;21839;-66
2022/11/06 06:10:52;;;;;;;21.40;15.23;;;;;;;7.77;100.00;100590.45;1744725;79;21620;-66
2022/11/06 06:13:19;;;;;;;26.75;16.30;;;;;;;7.79;100.00;100588.66;1756103;80;21560;-64
2022/11/06 06:15:46;;;;;;;21.97;15.32;;;;;;;7.80;100.00;100590.41;1752546;80;21601;-66
2022/11/06 06:18:13;;;;;;;26.35;16.77;;;;;;;7.80;100.00;100588.64;1754350;79;21155;-64
2022/11/06 06:20:41;;;;;;;25.92;16.17;;;;;;;7.83;100.00;100590.34;1722347;80;21427;-65
2022/11/06 06:23:08;;;;;;;22.50;15.30;;;;;;;7.86;100.00;100585.52;1761617;79;21533;-64
2022/11/06 06:25:36;;;;;;;25.60;16.42;;;;;;;7.88;100.00;100595.06;1735349;80;21045;-64
2022/11/06 06:28:03;;;;;;;29.57;18.17;;;;;;;7.86;100.00;100598.61;1761096;80;20969;-68
2022/11/06 06:30:30;;;;;;;28.10;16.45;;;;;;;7.86;100.00;100598.61;1695402;81;21481;-65
2022/11/06 06:32:56;;;;;;;29.27;16.67;;;;;;;7.89;100.00;100603.35;1687000;81;21815;-66
2022/11/06 06:35:23;;;;;;;27.37;15.95;;;;;;;7.90;100.00;100607.69;1676807;81;21479;-64
2022/11/06 06:37:52;;;;;;;26.20;16.77;;;;;;;7.89;100.00;100606.39;1723651;80;21523;-64
2022/11/06 06:40:20;;;;;;;26.95;17.45;;;;;;;7.85;100.00;100609.50;1719302;80;21734;-64
2022/11/06 06:42:47;;;;;;;;;;;;;;;7.83;100.00;100610.42;1719985;80;21706;-66
2022/11/06 06:45:14;;;;;;;29.90;17.02;;;;;;;7.80;100.00;100611.36;1706506;81;21894;-67
2022/11/06 06:47:40;;;;;;;24.67;15.85;;;;;;;7.82;100.00;100613.50;1711510;81;21499;-66
2022/11/06 06:50:08;;;;;;;25.80;16.12;;;;;;;7.88;100.00;100613.39;1713254;80;21677;-66
2022/11/06 06:52:35;;;;;;;24.23;14.60;;;;;;;7.90;100.00;100614.69;1695556;81;21151;-66
2022/11/06 06:55:53;;;;;;;22.95;16.70;;;;;;;7.60;100.00;100624.28;1769981;79;23219;-67
2022/11/06 06:58:20;;;;;;;25.60;16.67;;;;;;;7.82;100.00;100625.70;1731299;81;21609;-68
2022/11/06 07:00:47;;;;;;;25.30;15.77;;;;;;;7.88;100.00;100619.94;1725944;81;21875;-68
2022/11/06 07:03:13;;;;;;;27.75;17.25;;;;;;;7.88;100.00;100619.08;1732792;80;21486;-67
2022/11/06 07:05:42;;;;;;;29.23;16.70;;;;;;;7.86;100.00;100628.72;1737918;80;21470;-67
2022/11/06 07:08:09;;;;;;;26.62;16.65;;;;;;;7.86;100.00;100624.80;1732339;80;21012;-67
2022/11/06 07:10:37;;;;;;;27.17;15.80;;;;;;;7.91;100.00;100631.69;1733931;80;21077;-67
2022/11/06 07:13:04;;;;;;;27.05;17.15;;;;;;;7.91;100.00;100625.14;1733763;80;21797;-67
2022/11/06 07:15:32;;;;;;;28.15;16.70;;;;;;;7.90;100.00;100623.84;1733158;80;21553;-67
2022/11/06 07:18:03;;;;;;;26.68;16.97;;;;;;;7.89;100.00;100623.41;1742026;80;21081;-68
2022/11/06 07:20:30;;;;;;;26.75;17.27;;;;;;;7.88;100.00;100616.47;1736947;80;21483;-68
2022/11/06 07:22:57;;;;;;;28.30;17.77;;;;;;;7.92;100.00;100623.37;1728364;80;21474;-66
2022/11/06 07:25:25;;;;;;;24.00;16.07;;;;;;;7.91;100.00;100621.21;1735002;80;21886;-66
2022/11/06 07:27:51;;;;;;;25.62;16.95;;;;;;;7.95;100.00;100628.58;1736010;80;21553;-66
2022/11/06 07:30:17;;;;;;;27.77;17.62;;;;;;;7.94;100.00;100622.45;1737209;79;21480;-66
2022/11/06 07:32:44;;;;;;;28.47;16.62;;;;;;;7.98;100.00;100625.44;1736453;80;21511;-65
2022/11/06 07:35:11;;;;;;;26.27;17.30;;;;;;;8.02;100.00;100631.48;1725124;81;21029;-65
2022/11/06 07:37:38;;;;;;;25.95;16.30;;;;;;;8.05;100.00;100620.11;1738811;81;21742;-65
2022/11/06 07:40:07;;;;;;;26.62;17.17;;;;;;;8.07;100.00;100632.28;1738802;81;21609;-65
2022/11/06 07:42:34;;;;;;;28.42;17.07;;;;;;;8.07;100.00;100626.19;1720572;81;21589;-65
2022/11/06 07:45:03;;;;;;;30.37;18.00;;;;;;;8.07;100.00;100631.42;1735647;80;21583;-65
2022/11/06 07:47:30;;;;;;;28.85;18.15;;;;;;;8.10;100.00;100629.63;1734723;80;21550;-65
2022/11/06 07:49:56;;;;;;;26.20;16.17;;;;;;;8.12;100.00;100629.15;1743779;80;21830;-65
2022/11/06 07:52:23;;;;;;;21.48;15.35;;;;;;;8.12;100.00;100633.08;1727345;80;21708;-63
2022/11/06 07:54:50;;;;;;;24.95;15.78;;;;;;;8.12;100.00;100631.77;1727722;81;21501;-63
2022/11/06 07:57:18;;;;;;;25.60;15.95;;;;;;;8.13;100.00;100634.79;1732256;81;21509;-62
2022/11/06 07:59:45;;;;;;;25.70;16.17;;;;;;;8.16;100.00;100636.06;1733754;81;21431;-62
2022/11/06 08:02:11;;;;;;;25.08;15.10;;;;;;;8.18;100.00;100632.11;1721503;81;21840;-61
2022/11/06 08:04:38;;;;;;;23.02;15.83;;;;;;;8.17;100.00;100635.19;1731400;81;21498;-62
2022/11/06 08:07:06;;;;;;;23.12;14.85;;;;;;;8.21;100.00;100638.59;1735660;80;21529;-62
2022/11/06 08:09:33;;;;;;;24.15;16.10;;;;;;;8.25;100.00;100637.67;1737420;81;21001;-62
2022/11/06 08:12:00;;;;;;;21.75;14.98;;;;;;;8.23;100.00;100638.56;1739191;81;20942;-64
2022/11/06 08:14:26;;;;;;;23.60;14.85;;;;;;;8.25;100.00;100638.09;1728557;81;22140;-63
2022/11/06 08:16:57;;;;;;;22.85;14.93;;;;;;;8.22;100.00;100639.02;1733326;81;21605;-64
2022/11/06 08:19:24;;;;;;;25.35;14.80;;;;;;;8.25;100.00;100644.64;1741381;80;21688;-63
2022/11/06 08:21:51;;;;;;;;;;;;;;;8.28;100.00;100641.53;1727639;81;21554;-63
2022/11/06 08:24:18;;;;;;;21.97;13.62;;;;;;;8.23;100.00;100642.50;1733007;80;20421;-63
2022/11/06 08:26:45;;;;;;;21.90;14.53;;;;;;;8.24;100.00;100646.41;1729139;80;21645;-65
2022/11/06 08:29:11;;;;;;;21.57;14.43;;;;;;;8.27;100.00;100645.05;1728711;81;21533;-64
2022/11/06 08:31:38;;;;;;;24.32;15.32;;;;;;;8.32;100.00;100647.58;1740370;80;21785;-65
2022/11/06 08:34:05;;;;;;;24.45;14.15;;;;;;;8.35;100.00;100644.92;1738979;80;21597;-65
2022/11/06 08:36:42;;;;;;;21.93;14.38;;;;;;;8.36;100.00;100650.14;1739888;80;21422;-65
2022/11/06 08:39:08;;;;;;;23.15;15.08;;;;;;;8.36;100.00;100651.45;1725510;81;21798;-65
2022/11/06 08:41:34;;;;;;;21.37;14.18;;;;;;;8.37;100.00;100647.92;1725287;81;22638;-70
2022/11/06 08:44:01;;;;;;;20.92;14.00;;;;;;;8.41;100.00;100652.66;1731741;81;21455;-64
2022/11/06 08:46:28;;;;;;;23.10;14.95;;;;;;;8.41;100.00;100650.05;1729220;81;21585;-66
2022/11/06 08:48:55;;;;;;;22.67;14.60;;;;;;;8.45;100.00;100654.36;1735905;81;21990;-67
2022/11/06 08:51:22;;;;;;;20.62;14.53;;;;;;;8.38;100.00;100642.22;1732367;81;21767;-64
2022/11/06 08:53:49;;;;;;;20.55;13.95;;;;;;;8.46;100.00;100650.01;1728445;81;21621;-65
2022/11/06 08:56:16;;;;;;;22.90;14.43;;;;;;;8.43;100.00;100650.05;1725746;81;21581;-70
2022/11/06 08:58:44;;;;;;;23.18;14.23;;;;;;;8.43;100.00;100652.22;1729150;80;21523;-65
2022/11/06 09:01:12;;;;;;;19.10;13.50;;;;;;;8.41;100.00;100649.19;1726368;81;21558;-64
2022/11/06 09:03:38;;;;;;;19.48;13.40;;;;;;;8.36;100.00;100654.07;1732597;80;21655;-66
2022/11/06 09:06:07;;;;;;;23.10;13.43;;;;;;;8.36;100.00;100654.07;1736232;80;21556;-65
2022/11/06 09:08:33;;;;;;;19.02;12.47;;;;;;;8.33;100.00;100659.80;1725371;81;21478;-65
2022/11/06 09:11:06;;;;;;;21.77;13.03;;;;;;;8.31;100.00;100659.83;1739694;80;21085;-65
2022/11/06 09:13:33;;;;;;;18.45;12.80;;;;;;;8.32;100.00;100661.54;1723819;81;20994;-62
2022/11/06 09:16:02;;;;;;;16.42;12.00;;;;;;;8.33;100.00;100660.66;1732675;81;21038;-63
2022/11/06 09:18:28;;;;;;;16.75;12.05;;;;;;;8.37;100.00;100656.23;1730147;81;21644;-63
2022/11/06 09:20:56;;;;;;;17.05;12.53;;;;;;;8.41;100.00;100656.59;1738749;80;21455;-62
2022/11/06 09:23:23;;;;;;;15.90;11.90;;;;;;;8.43;100.00;100657.46;1728744;81;21510;-63
2022/11/06 09:25:50;;;;;;;19.27;12.68;;;;;;;8.48;100.00;100656.09;1725771;81;21204;-63
2022/11/06 09:28:16;;;;;;;17.02;11.43;;;;;;;8.48;100.00;100647.77;1723861;81;21769;-63
2022/11/06 09:30:43;;;;;;;17.37;12.05;;;;;;;8.46;100.00;100644.31;1725367;81;21400;-63
2022/11/06 09:33:10;;;;;;;16.12;11.70;;;;;;;8.48;100.00;100648.22;1732616;81;21534;-64
2022/11/06 09:35:36;;;;;;;16.25;11.60;;;;;;;8.44;100.00;100646.10;1708760;81;22102;-64
2022/11/06 09:38:05;;;;;;;15.83;11.30;;;;;;;8.43;100.00;100647.44;1727180;81;21640;-63
2022/11/06 09:40:36;;;;;;;18.90;12.60;;;;;;;8.40;100.00;100647.02;1728995;81;21845;-63
2022/11/06 09:43:42;;;;;;;15.05;11.55;;;;;;;8.38;100.00;100645.73;1724073;81;21553;-64
2022/11/06 09:46:26;;;;;;;18.95;12.82;;;;;;;8.40;100.00;100647.02;1737055;81;21591;-64
2022/11/06 09:49:01;;;;;;;17.73;12.13;;;;;;;8.39;100.00;100649.20;1738490;81;21030;-64
2022/11/06 09:51:45;;;;;;;18.73;12.70;;;;;;;8.38;100.00;100645.73;1732111;81;21443;-64
2022/11/06 09:54:21;;;;;;;19.05;12.47;;;;;;;8.38;100.00;100644.42;1726249;81;21819;-65
2022/11/06 09:56:49;;;;;;;18.48;13.10;;;;;;;8.40;100.00;100641.78;1728687;80;21423;-63
2022/11/06 14:27:02;;;;;;;26.20;17.27;;;;;;;4.85;100.00;100625.06;1846320;75;26443;-60
2022/11/06 14:29:41;;;;;;;21.07;15.45;;;;;;;5.12;100.00;100636.69;1689337;82;21481;-63
2022/11/06 14:32:21;;;;;;;22.70;16.30;;;;;;;5.34;100.00;100625.27;1687005;83;21797;-62
2022/11/06 14:34:48;;;;;;;19.85;14.15;;;;;;;5.49;100.00;100626.07;1696303;83;21076;-63
2022/11/06 14:37:28;;;;;;;20.60;15.05;;;;;;;5.61;100.00;100623.36;1673975;81;21453;-62
2022/11/06 14:40:00;;;;;;;20.52;14.60;;;;;;;5.72;100.00;100619.38;1678478;82;21567;-63
2022/11/06 14:42:35;;;;;;;23.32;16.35;;;;;;;5.80;100.00;100607.13;1707683;82;20934;-64
2022/11/06 14:45:15;;;;;;;21.05;16.32;;;;;;;5.89;100.00;100611.42;1676853;83;21780;-61
2022/11/06 14:47:53;;;;;;;20.55;15.45;;;;;;;5.92;100.00;100608.80;1690540;82;21473;-66
2022/11/06 14:50:30;;;;;;;21.27;14.83;;;;;;;5.99;100.00;100613.09;1696466;81;21064;-63
2022/11/06 14:53:02;;;;;;;;;;;;;;;6.06;100.00;100612.17;1708187;82;21445;-63
2022/11/06 14:55:35;;;;;;;19.73;14.30;;;;;;;6.07;100.00;100613.06;1675150;84;20465;-64
2022/11/06 14:58:25;;;;;;;20.57;14.87;;;;;;;6.12;100.00;100608.64;1703514;82;21997;-66
2022/11/06 15:01:02;;;;;;;21.82;15.35;;;;;;;6.18;100.00;100604.23;1708190;81;21477;-62
2022/11/06 15:03:46;;;;;;;19.73;14.90;;;;;;;6.22;100.00;100603.77;1668675;83;21004;-64
2022/11/06 15:06:33;;;;;;;22.80;16.17;;;;;;;6.24;100.00;100605.48;1707136;81;21060;-65
2022/11/06 15:09:07;;;;;;;20.75;15.80;;;;;;;6.28;100.00;100597.17;1688616;82;21089;-63
2022/11/06 15:11:42;;;;;;;19.25;14.75;;;;;;;6.32;100.00;100597.56;1672294;82;21808;-65
2022/11/06 15:14:17;;;;;;;21.50;15.95;;;;;;;6.34;100.00;100597.10;1685113;82;21588;-64
2022/11/06 15:17:07;;;;;;;22.48;15.32;;;;;;;6.35;100.00;100595.38;1682750;82;21690;-64
2022/11/06 15:19:45;;;;;;;19.85;15.03;;;;;;;6.39;100.00;100587.93;1663077;83;21568;-64
2022/11/06 15:22:23;;;;;;;22.40;16.45;;;;;;;6.44;100.00;100586.11;1690434;81;21595;-65
2022/11/06 15:25:18;;;;;;;21.48;15.98;;;;;;;6.45;100.00;100583.08;1661873;84;21606;-63
2022/11/06 15:27:59;;;;;;;20.82;15.18;;;;;;;6.44;100.00;100579.58;1706649;81;21710;-64
2022/11/06 15:30:26;;;;;;;21.35;16.35;;;;;;;6.47;100.00;100578.70;1694582;82;21487;-65
2022/11/06 15:32:53;;;;;;;21.85;16.10;;;;;;;6.50;100.00;100579.54;1677528;83;21568;-65
2022/11/06 15:35:25;;;;;;;22.00;16.65;;;;;;;6.49;100.00;100572.56;1662121;84;21627;-65
2022/11/06 15:38:05;;;;;;;23.52;17.10;;;;;;;6.49;100.00;100562.12;1687581;82;21791;-65
2022/11/06 15:40:34;;;;;;;24.20;17.45;;;;;;;6.59;100.00;100565.48;1695751;82;21564;-64
2022/11/06 15:43:18;;;;;;;25.62;18.35;;;;;;;6.63;100.00;100561.52;1692990;81;21188;-62
2022/11/06 15:45:44;;;;;;;23.10;17.55;;;;;;;6.63;100.00;100558.91;1711873;81;21564;-63
2022/11/06 15:48:20;;;;;;;23.85;16.80;;;;;;;6.61;100.00;100551.53;1714680;81;21398;-64
2022/11/06 15:50:48;;;;;;;25.90;18.35;;;;;;;6.63;100.00;100553.69;1690161;82;22004;-63
2022/11/06 15:53:25;;;;;;;24.40;18.05;;;;;;;6.63;100.00;100551.52;1705990;81;21606;-64
2022/11/06 15:56:01;;;;;;;24.15;17.07;;;;;;;6.67;100.00;100555.83;1680756;82;21666;-64
2022/11/06 15:58:33;;;;;;;22.90;16.97;;;;;;;6.69;100.00;100554.50;1680703;81;21494;-65
2022/11/06 16:01:01;;;;;;;22.75;17.77;;;;;;;6.73;100.00;100550.52;1650667;84;21485;-63
2022/11/06 16:03:30;;;;;;;27.35;18.48;;;;;;;6.74;100.00;100552.67;1688826;82;22120;-66
2022/11/06 16:06:00;;;;;;;27.25;17.57;;;;;;;6.72;100.00;100553.14;1663116;84;21665;-63
2022/11/06 16:08:28;;;;;;;24.92;18.02;;;;;;;6.63;100.00;100549.77;1701299;81;21513;-65
2022/11/06 16:10:55;;;;;;;27.50;17.73;;;;;;;6.62;100.00;100548.02;1709912;82;21563;-65
2022/11/06 16:13:24;;;;;;;27.65;19.42;;;;;;;6.55;100.00;100550.28;1658029;84;21545;-64
2022/11/06 16:15:57;;;;;;;22.80;16.87;;;;;;;6.55;100.00;100550.28;1701130;82;21815;-65